sensor_id;sensor_type;location;lat;lon;timestamp;P1;durP1;ratioP1;P2;durP2;ratioP2
6348;SDS011;3207;42.648;23.406;2022-12-07T00:01:41;33.27;;;20.90;;
6348;SDS011;3207;42.648;23.406;2022-12-07T00:04:10;30.50;;;19.57;;
6348;SDS011;3207;42.648;23.406;2022-12-07T00:06:42;32.30;;;20.37;;
6348;SDS011;3207;42.648;23.406;2022-12-07T00:09:10;31.73;;;20.93;;
6348;SDS011;3207;42.648;23.406;2022-12-07T00:11:39;30.30;;;19.23;;
6348;SDS011;3207;42.648;23.406;2022-12-07T00:14:06;38.43;;;23.77;;
6348;SDS011;3207;42.648;23.406;2022-12-07T00:16:36;38.53;;;25.83;;
6348;SDS011;3207;42.648;23.406;2022-12-07T00:19:04;38.87;;;26.13;;
6348;SDS011;3207;42.648;23.406;2022-12-07T00:21:32;44.73;;;29.93;;
6348;SDS011;3207;42.648;23.406;2022-12-07T00:24:00;47.10;;;30.30;;
6348;SDS011;3207;42.648;23.406;2022-12-07T00:26:29;47.30;;;30.77;;
6348;SDS011;3207;42.648;23.406;2022-12-07T00:28:57;39.13;;;27.27;;
6348;SDS011;3207;42.648;23.406;2022-12-07T00:31:26;41.57;;;27.73;;
6348;SDS011;3207;42.648;23.406;2022-12-07T00:33:54;44.17;;;30.00;;
6348;SDS011;3207;42.648;23.406;2022-12-07T00:36:23;46.60;;;29.77;;
6348;SDS011;3207;42.648;23.406;2022-12-07T00:38:51;43.50;;;28.33;;
6348;SDS011;3207;42.648;23.406;2022-12-07T00:41:18;53.33;;;32.30;;
6348;SDS011;3207;42.648;23.406;2022-12-07T00:43:46;42.93;;;27.27;;
6348;SDS011;3207;42.648;23.406;2022-12-07T00:46:14;40.70;;;26.97;;
6348;SDS011;3207;42.648;23.406;2022-12-07T00:48:41;36.20;;;25.67;;
6348;SDS011;3207;42.648;23.406;2022-12-07T00:51:09;41.07;;;25.47;;
6348;SDS011;3207;42.648;23.406;2022-12-07T00:53:38;38.67;;;24.70;;
6348;SDS011;3207;42.648;23.406;2022-12-07T00:56:06;36.07;;;26.00;;
6348;SDS011;3207;42.648;23.406;2022-12-07T00:58:33;36.07;;;24.83;;
6348;SDS011;3207;42.648;23.406;2022-12-07T01:01:00;33.37;;;24.80;;
6348;SDS011;3207;42.648;23.406;2022-12-07T01:03:27;32.00;;;24.57;;
6348;SDS011;3207;42.648;23.406;2022-12-07T01:05:55;36.30;;;24.27;;
6348;SDS011;3207;42.648;23.406;2022-12-07T01:08:23;38.13;;;25.23;;
6348;SDS011;3207;42.648;23.406;2022-12-07T01:10:58;38.63;;;24.77;;
6348;SDS011;3207;42.648;23.406;2022-12-07T01:13:26;37.30;;;24.47;;
6348;SDS011;3207;42.648;23.406;2022-12-07T01:15:56;37.53;;;24.47;;
6348;SDS011;3207;42.648;23.406;2022-12-07T01:18:24;32.13;;;24.27;;
6348;SDS011;3207;42.648;23.406;2022-12-07T01:21:01;36.40;;;26.33;;
6348;SDS011;3207;42.648;23.406;2022-12-07T01:23:29;38.93;;;24.60;;
6348;SDS011;3207;42.648;23.406;2022-12-07T01:25:58;34.97;;;23.27;;
6348;SDS011;3207;42.648;23.406;2022-12-07T01:28:26;42.83;;;27.93;;
6348;SDS011;3207;42.648;23.406;2022-12-07T01:30:57;38.63;;;26.63;;
6348;SDS011;3207;42.648;23.406;2022-12-07T01:33:26;37.63;;;25.33;;
6348;SDS011;3207;42.648;23.406;2022-12-07T01:35:54;37.00;;;24.53;;
6348;SDS011;3207;42.648;23.406;2022-12-07T01:38:26;36.63;;;23.70;;
6348;SDS011;3207;42.648;23.406;2022-12-07T01:40:53;33.93;;;22.83;;
6348;SDS011;3207;42.648;23.406;2022-12-07T01:43:22;35.33;;;22.63;;
6348;SDS011;3207;42.648;23.406;2022-12-07T01:45:51;33.93;;;22.27;;
6348;SDS011;3207;42.648;23.406;2022-12-07T01:48:19;35.10;;;23.47;;
6348;SDS011;3207;42.648;23.406;2022-12-07T01:50:50;40.77;;;24.83;;
6348;SDS011;3207;42.648;23.406;2022-12-07T01:53:19;32.37;;;21.70;;
6348;SDS011;3207;42.648;23.406;2022-12-07T01:55:48;33.27;;;22.43;;
6348;SDS011;3207;42.648;23.406;2022-12-07T01:58:18;28.23;;;21.13;;
6348;SDS011;3207;42.648;23.406;2022-12-07T02:00:47;36.13;;;24.20;;
6348;SDS011;3207;42.648;23.406;2022-12-07T02:03:15;34.13;;;21.80;;
6348;SDS011;3207;42.648;23.406;2022-12-07T02:05:47;33.30;;;21.87;;
6348;SDS011;3207;42.648;23.406;2022-12-07T02:08:15;33.83;;;22.90;;
6348;SDS011;3207;42.648;23.406;2022-12-07T02:10:43;30.27;;;20.93;;
6348;SDS011;3207;42.648;23.406;2022-12-07T02:13:11;33.37;;;20.57;;
6348;SDS011;3207;42.648;23.406;2022-12-07T02:15:45;30.87;;;19.67;;
6348;SDS011;3207;42.648;23.406;2022-12-07T02:18:25;28.23;;;19.13;;
6348;SDS011;3207;42.648;23.406;2022-12-07T02:21:05;28.17;;;17.63;;
6348;SDS011;3207;42.648;23.406;2022-12-07T02:23:40;27.80;;;16.80;;
6348;SDS011;3207;42.648;23.406;2022-12-07T02:29:26;21.43;;;15.17;;
6348;SDS011;3207;42.648;23.406;2022-12-07T02:31:59;22.90;;;15.50;;
6348;SDS011;3207;42.648;23.406;2022-12-07T02:34:34;23.90;;;14.80;;
6348;SDS011;3207;42.648;23.406;2022-12-07T02:37:09;22.73;;;15.07;;
6348;SDS011;3207;42.648;23.406;2022-12-07T02:39:40;19.37;;;13.87;;
6348;SDS011;3207;42.648;23.406;2022-12-07T02:42:12;22.77;;;14.67;;
6348;SDS011;3207;42.648;23.406;2022-12-07T02:44:43;22.70;;;14.70;;
6348;SDS011;3207;42.648;23.406;2022-12-07T02:47:12;19.40;;;14.00;;
6348;SDS011;3207;42.648;23.406;2022-12-07T02:49:41;20.57;;;15.40;;
6348;SDS011;3207;42.648;23.406;2022-12-07T02:52:09;20.90;;;14.83;;
6348;SDS011;3207;42.648;23.406;2022-12-07T02:54:35;19.10;;;14.07;;
6348;SDS011;3207;42.648;23.406;2022-12-07T02:57:04;24.33;;;15.63;;
6348;SDS011;3207;42.648;23.406;2022-12-07T02:59:46;23.70;;;16.17;;
6348;SDS011;3207;42.648;23.406;2022-12-07T03:02:25;26.17;;;17.07;;
6348;SDS011;3207;42.648;23.406;2022-12-07T03:05:04;22.43;;;16.20;;
6348;SDS011;3207;42.648;23.406;2022-12-07T03:07:43;23.43;;;16.20;;
6348;SDS011;3207;42.648;23.406;2022-12-07T03:10:18;24.40;;;16.03;;
6348;SDS011;3207;42.648;23.406;2022-12-07T03:12:53;20.40;;;13.63;;
6348;SDS011;3207;42.648;23.406;2022-12-07T03:15:32;21.40;;;13.57;;
6348;SDS011;3207;42.648;23.406;2022-12-07T03:18:06;22.43;;;14.03;;
6348;SDS011;3207;42.648;23.406;2022-12-07T03:20:35;19.23;;;13.03;;
6348;SDS011;3207;42.648;23.406;2022-12-07T03:23:06;19.37;;;12.87;;
6348;SDS011;3207;42.648;23.406;2022-12-07T03:25:35;18.97;;;13.43;;
6348;SDS011;3207;42.648;23.406;2022-12-07T03:28:07;19.83;;;14.97;;
6348;SDS011;3207;42.648;23.406;2022-12-07T03:30:39;20.77;;;16.20;;
6348;SDS011;3207;42.648;23.406;2022-12-07T03:33:12;23.60;;;16.73;;
6348;SDS011;3207;42.648;23.406;2022-12-07T03:35:47;25.37;;;18.00;;
6348;SDS011;3207;42.648;23.406;2022-12-07T03:38:18;24.20;;;17.20;;
6348;SDS011;3207;42.648;23.406;2022-12-07T03:40:48;23.47;;;16.17;;
6348;SDS011;3207;42.648;23.406;2022-12-07T03:43:21;23.77;;;16.73;;
6348;SDS011;3207;42.648;23.406;2022-12-07T03:45:51;24.33;;;17.73;;
6348;SDS011;3207;42.648;23.406;2022-12-07T03:48:28;28.00;;;19.20;;
6348;SDS011;3207;42.648;23.406;2022-12-07T03:51:05;24.23;;;18.23;;
6348;SDS011;3207;42.648;23.406;2022-12-07T03:53:39;25.83;;;18.27;;
6348;SDS011;3207;42.648;23.406;2022-12-07T03:56:10;22.53;;;17.47;;
6348;SDS011;3207;42.648;23.406;2022-12-07T03:58:38;28.37;;;18.33;;
6348;SDS011;3207;42.648;23.406;2022-12-07T04:01:08;26.87;;;18.10;;
6348;SDS011;3207;42.648;23.406;2022-12-07T04:03:35;26.00;;;17.00;;
6348;SDS011;3207;42.648;23.406;2022-12-07T04:06:02;27.13;;;19.00;;
6348;SDS011;3207;42.648;23.406;2022-12-07T04:08:28;25.33;;;17.47;;
6348;SDS011;3207;42.648;23.406;2022-12-07T04:10:55;22.03;;;17.33;;
6348;SDS011;3207;42.648;23.406;2022-12-07T04:13:22;24.47;;;16.87;;
6348;SDS011;3207;42.648;23.406;2022-12-07T04:15:49;27.17;;;18.53;;
6348;SDS011;3207;42.648;23.406;2022-12-07T04:18:17;25.70;;;17.83;;
6348;SDS011;3207;42.648;23.406;2022-12-07T04:20:45;23.17;;;17.47;;
6348;SDS011;3207;42.648;23.406;2022-12-07T04:23:12;31.37;;;21.07;;
6348;SDS011;3207;42.648;23.406;2022-12-07T04:25:38;27.40;;;18.40;;
6348;SDS011;3207;42.648;23.406;2022-12-07T04:28:05;28.83;;;19.23;;
6348;SDS011;3207;42.648;23.406;2022-12-07T04:30:32;28.00;;;20.37;;
6348;SDS011;3207;42.648;23.406;2022-12-07T04:32:58;22.20;;;16.67;;
6348;SDS011;3207;42.648;23.406;2022-12-07T04:35:27;28.03;;;17.80;;
6348;SDS011;3207;42.648;23.406;2022-12-07T04:37:53;28.47;;;18.80;;
6348;SDS011;3207;42.648;23.406;2022-12-07T04:40:20;21.93;;;16.97;;
6348;SDS011;3207;42.648;23.406;2022-12-07T04:42:47;23.93;;;15.93;;
6348;SDS011;3207;42.648;23.406;2022-12-07T04:45:13;24.67;;;14.57;;
6348;SDS011;3207;42.648;23.406;2022-12-07T04:47:40;21.00;;;15.83;;
6348;SDS011;3207;42.648;23.406;2022-12-07T04:50:09;18.87;;;12.83;;
6348;SDS011;3207;42.648;23.406;2022-12-07T04:52:38;19.70;;;14.30;;
6348;SDS011;3207;42.648;23.406;2022-12-07T04:55:04;15.53;;;11.10;;
6348;SDS011;3207;42.648;23.406;2022-12-07T04:57:32;18.00;;;11.87;;
6348;SDS011;3207;42.648;23.406;2022-12-07T04:59:58;16.00;;;11.47;;
6348;SDS011;3207;42.648;23.406;2022-12-07T05:02:25;15.53;;;10.70;;
6348;SDS011;3207;42.648;23.406;2022-12-07T05:04:52;15.73;;;10.27;;
6348;SDS011;3207;42.648;23.406;2022-12-07T05:07:19;19.33;;;11.70;;
6348;SDS011;3207;42.648;23.406;2022-12-07T05:09:47;19.37;;;14.03;;
6348;SDS011;3207;42.648;23.406;2022-12-07T05:12:13;18.20;;;13.57;;
6348;SDS011;3207;42.648;23.406;2022-12-07T05:14:40;18.30;;;14.33;;
6348;SDS011;3207;42.648;23.406;2022-12-07T05:17:07;20.20;;;13.90;;
6348;SDS011;3207;42.648;23.406;2022-12-07T05:19:34;23.20;;;15.27;;
6348;SDS011;3207;42.648;23.406;2022-12-07T05:22:01;20.67;;;14.53;;
6348;SDS011;3207;42.648;23.406;2022-12-07T05:24:28;18.17;;;14.67;;
6348;SDS011;3207;42.648;23.406;2022-12-07T05:26:56;20.07;;;14.30;;
6348;SDS011;3207;42.648;23.406;2022-12-07T05:29:22;19.40;;;13.70;;
6348;SDS011;3207;42.648;23.406;2022-12-07T05:31:49;18.40;;;13.60;;
6348;SDS011;3207;42.648;23.406;2022-12-07T05:34:16;21.03;;;13.50;;
6348;SDS011;3207;42.648;23.406;2022-12-07T05:36:43;18.63;;;13.27;;
6348;SDS011;3207;42.648;23.406;2022-12-07T05:39:09;17.60;;;12.80;;
6348;SDS011;3207;42.648;23.406;2022-12-07T05:41:36;17.33;;;13.03;;
6348;SDS011;3207;42.648;23.406;2022-12-07T05:44:22;19.57;;;13.40;;
6348;SDS011;3207;42.648;23.406;2022-12-07T05:46:49;17.33;;;14.27;;
6348;SDS011;3207;42.648;23.406;2022-12-07T05:49:15;23.37;;;15.60;;
6348;SDS011;3207;42.648;23.406;2022-12-07T05:51:42;33.73;;;19.23;;
6348;SDS011;3207;42.648;23.406;2022-12-07T05:54:09;28.13;;;18.30;;
6348;SDS011;3207;42.648;23.406;2022-12-07T05:56:36;21.77;;;15.80;;
6348;SDS011;3207;42.648;23.406;2022-12-07T05:59:03;26.80;;;17.67;;
6348;SDS011;3207;42.648;23.406;2022-12-07T06:01:49;30.47;;;15.90;;
6348;SDS011;3207;42.648;23.406;2022-12-07T06:04:16;26.13;;;17.57;;
6348;SDS011;3207;42.648;23.406;2022-12-07T06:06:43;24.90;;;16.30;;
6348;SDS011;3207;42.648;23.406;2022-12-07T06:09:10;19.33;;;14.93;;
6348;SDS011;3207;42.648;23.406;2022-12-07T06:11:38;22.33;;;15.83;;
6348;SDS011;3207;42.648;23.406;2022-12-07T06:14:22;26.47;;;19.23;;
6348;SDS011;3207;42.648;23.406;2022-12-07T06:16:50;27.50;;;19.70;;
6348;SDS011;3207;42.648;23.406;2022-12-07T06:19:17;25.80;;;19.50;;
6348;SDS011;3207;42.648;23.406;2022-12-07T06:21:44;27.47;;;18.03;;
6348;SDS011;3207;42.648;23.406;2022-12-07T06:24:11;26.47;;;19.60;;
6348;SDS011;3207;42.648;23.406;2022-12-07T06:26:39;26.23;;;19.10;;
6348;SDS011;3207;42.648;23.406;2022-12-07T06:29:06;25.10;;;18.40;;
6348;SDS011;3207;42.648;23.406;2022-12-07T06:31:33;27.80;;;19.07;;
6348;SDS011;3207;42.648;23.406;2022-12-07T06:34:03;21.67;;;17.80;;
6348;SDS011;3207;42.648;23.406;2022-12-07T06:36:30;28.40;;;18.83;;
6348;SDS011;3207;42.648;23.406;2022-12-07T06:38:57;25.93;;;17.70;;
6348;SDS011;3207;42.648;23.406;2022-12-07T06:41:24;22.60;;;16.20;;
6348;SDS011;3207;42.648;23.406;2022-12-07T06:43:51;25.30;;;18.63;;
6348;SDS011;3207;42.648;23.406;2022-12-07T06:46:18;40.10;;;24.00;;
6348;SDS011;3207;42.648;23.406;2022-12-07T06:48:45;30.27;;;19.83;;
6348;SDS011;3207;42.648;23.406;2022-12-07T06:51:13;33.13;;;21.73;;
6348;SDS011;3207;42.648;23.406;2022-12-07T06:53:40;41.23;;;24.27;;
6348;SDS011;3207;42.648;23.406;2022-12-07T06:56:06;38.60;;;23.40;;
6348;SDS011;3207;42.648;23.406;2022-12-07T06:58:33;28.47;;;20.47;;
6348;SDS011;3207;42.648;23.406;2022-12-07T07:01:00;29.63;;;20.40;;
6348;SDS011;3207;42.648;23.406;2022-12-07T07:03:28;26.37;;;19.33;;
6348;SDS011;3207;42.648;23.406;2022-12-07T07:05:54;36.20;;;24.07;;
6348;SDS011;3207;42.648;23.406;2022-12-07T07:08:23;31.77;;;21.60;;
6348;SDS011;3207;42.648;23.406;2022-12-07T07:10:49;31.60;;;21.03;;
6348;SDS011;3207;42.648;23.406;2022-12-07T07:13:16;27.33;;;19.30;;
6348;SDS011;3207;42.648;23.406;2022-12-07T07:15:43;30.33;;;21.13;;
6348;SDS011;3207;42.648;23.406;2022-12-07T07:18:10;24.70;;;18.47;;
6348;SDS011;3207;42.648;23.406;2022-12-07T07:20:37;27.17;;;18.73;;
6348;SDS011;3207;42.648;23.406;2022-12-07T07:23:04;27.07;;;18.40;;
6348;SDS011;3207;42.648;23.406;2022-12-07T07:25:32;25.53;;;19.23;;
6348;SDS011;3207;42.648;23.406;2022-12-07T07:27:59;23.37;;;17.20;;
6348;SDS011;3207;42.648;23.406;2022-12-07T07:30:31;21.50;;;16.70;;
6348;SDS011;3207;42.648;23.406;2022-12-07T07:32:57;23.03;;;17.73;;
6348;SDS011;3207;42.648;23.406;2022-12-07T07:35:25;30.50;;;17.93;;
6348;SDS011;3207;42.648;23.406;2022-12-07T07:37:52;21.50;;;17.33;;
6348;SDS011;3207;42.648;23.406;2022-12-07T07:40:19;25.57;;;18.40;;
6348;SDS011;3207;42.648;23.406;2022-12-07T07:42:48;24.13;;;18.47;;
6348;SDS011;3207;42.648;23.406;2022-12-07T07:45:15;24.77;;;17.63;;
6348;SDS011;3207;42.648;23.406;2022-12-07T07:47:42;21.80;;;16.13;;
6348;SDS011;3207;42.648;23.406;2022-12-07T07:50:09;28.17;;;18.33;;
6348;SDS011;3207;42.648;23.406;2022-12-07T07:52:36;23.10;;;17.57;;
6348;SDS011;3207;42.648;23.406;2022-12-07T07:55:03;23.53;;;17.63;;
6348;SDS011;3207;42.648;23.406;2022-12-07T07:57:32;25.13;;;19.50;;
6348;SDS011;3207;42.648;23.406;2022-12-07T08:00:00;25.00;;;17.57;;
6348;SDS011;3207;42.648;23.406;2022-12-07T08:02:28;25.90;;;17.40;;
6348;SDS011;3207;42.648;23.406;2022-12-07T08:04:55;32.47;;;18.23;;
6348;SDS011;3207;42.648;23.406;2022-12-07T08:07:22;23.57;;;17.33;;
6348;SDS011;3207;42.648;23.406;2022-12-07T08:09:48;24.50;;;18.00;;
6348;SDS011;3207;42.648;23.406;2022-12-07T08:12:15;23.30;;;17.97;;
6348;SDS011;3207;42.648;23.406;2022-12-07T08:14:42;25.20;;;17.83;;
6348;SDS011;3207;42.648;23.406;2022-12-07T08:17:10;41.33;;;26.10;;
6348;SDS011;3207;42.648;23.406;2022-12-07T08:19:37;38.43;;;24.57;;
6348;SDS011;3207;42.648;23.406;2022-12-07T08:22:04;25.53;;;19.17;;
6348;SDS011;3207;42.648;23.406;2022-12-07T08:24:32;25.47;;;18.30;;
6348;SDS011;3207;42.648;23.406;2022-12-07T08:26:59;27.67;;;19.57;;
6348;SDS011;3207;42.648;23.406;2022-12-07T08:29:26;32.23;;;21.20;;
6348;SDS011;3207;42.648;23.406;2022-12-07T08:31:54;25.60;;;19.17;;
6348;SDS011;3207;42.648;23.406;2022-12-07T08:34:22;27.47;;;18.87;;
6348;SDS011;3207;42.648;23.406;2022-12-07T08:36:49;27.10;;;21.03;;
6348;SDS011;3207;42.648;23.406;2022-12-07T08:39:16;23.93;;;18.60;;
6348;SDS011;3207;42.648;23.406;2022-12-07T08:41:42;25.37;;;18.10;;
6348;SDS011;3207;42.648;23.406;2022-12-07T08:44:09;22.10;;;17.53;;
6348;SDS011;3207;42.648;23.406;2022-12-07T08:46:36;26.97;;;19.47;;
6348;SDS011;3207;42.648;23.406;2022-12-07T08:49:06;23.00;;;18.10;;
6348;SDS011;3207;42.648;23.406;2022-12-07T08:51:38;25.60;;;19.93;;
6348;SDS011;3207;42.648;23.406;2022-12-07T08:54:06;24.17;;;17.13;;
6348;SDS011;3207;42.648;23.406;2022-12-07T08:56:35;29.83;;;20.37;;
6348;SDS011;3207;42.648;23.406;2022-12-07T08:59:02;28.73;;;20.53;;
6348;SDS011;3207;42.648;23.406;2022-12-07T09:01:30;28.53;;;19.73;;
6348;SDS011;3207;42.648;23.406;2022-12-07T09:03:57;29.23;;;19.90;;
6348;SDS011;3207;42.648;23.406;2022-12-07T09:06:24;29.93;;;21.70;;
6348;SDS011;3207;42.648;23.406;2022-12-07T09:08:53;29.47;;;21.60;;
6348;SDS011;3207;42.648;23.406;2022-12-07T09:11:23;27.27;;;19.90;;
6348;SDS011;3207;42.648;23.406;2022-12-07T09:13:50;30.53;;;22.77;;
6348;SDS011;3207;42.648;23.406;2022-12-07T09:16:17;28.60;;;22.93;;
6348;SDS011;3207;42.648;23.406;2022-12-07T09:18:44;28.13;;;21.60;;
6348;SDS011;3207;42.648;23.406;2022-12-07T09:21:11;28.53;;;22.00;;
6348;SDS011;3207;42.648;23.406;2022-12-07T09:23:37;31.30;;;22.47;;
6348;SDS011;3207;42.648;23.406;2022-12-07T09:26:05;27.77;;;21.17;;
6348;SDS011;3207;42.648;23.406;2022-12-07T09:28:32;28.60;;;24.00;;
6348;SDS011;3207;42.648;23.406;2022-12-07T09:30:59;31.80;;;21.97;;
6348;SDS011;3207;42.648;23.406;2022-12-07T09:33:26;24.70;;;20.47;;
6348;SDS011;3207;42.648;23.406;2022-12-07T09:35:53;27.83;;;19.70;;
6348;SDS011;3207;42.648;23.406;2022-12-07T09:38:20;30.50;;;21.90;;
6348;SDS011;3207;42.648;23.406;2022-12-07T09:40:49;31.90;;;23.67;;
6348;SDS011;3207;42.648;23.406;2022-12-07T09:43:18;27.43;;;20.67;;
6348;SDS011;3207;42.648;23.406;2022-12-07T09:45:48;24.83;;;21.00;;
6348;SDS011;3207;42.648;23.406;2022-12-07T09:48:19;28.13;;;19.90;;
6348;SDS011;3207;42.648;23.406;2022-12-07T09:50:47;25.70;;;20.30;;
6348;SDS011;3207;42.648;23.406;2022-12-07T09:53:18;27.50;;;23.00;;
6348;SDS011;3207;42.648;23.406;2022-12-07T09:55:51;32.57;;;22.30;;
6348;SDS011;3207;42.648;23.406;2022-12-07T09:58:21;34.87;;;24.63;;
6348;SDS011;3207;42.648;23.406;2022-12-07T10:00:52;28.90;;;21.30;;
6348;SDS011;3207;42.648;23.406;2022-12-07T10:03:22;29.83;;;21.63;;
6348;SDS011;3207;42.648;23.406;2022-12-07T10:05:49;29.33;;;20.40;;
6348;SDS011;3207;42.648;23.406;2022-12-07T10:08:17;25.17;;;18.83;;
6348;SDS011;3207;42.648;23.406;2022-12-07T10:10:45;24.33;;;18.83;;
6348;SDS011;3207;42.648;23.406;2022-12-07T10:13:15;23.80;;;17.80;;
6348;SDS011;3207;42.648;23.406;2022-12-07T10:15:50;23.87;;;17.80;;
6348;SDS011;3207;42.648;23.406;2022-12-07T10:18:19;22.37;;;18.33;;
6348;SDS011;3207;42.648;23.406;2022-12-07T10:20:59;22.83;;;16.53;;
6348;SDS011;3207;42.648;23.406;2022-12-07T10:23:38;23.17;;;16.47;;
6348;SDS011;3207;42.648;23.406;2022-12-07T10:26:19;21.73;;;16.67;;
6348;SDS011;3207;42.648;23.406;2022-12-07T10:28:51;22.00;;;17.00;;
6348;SDS011;3207;42.648;23.406;2022-12-07T10:31:20;22.90;;;16.67;;
6348;SDS011;3207;42.648;23.406;2022-12-07T10:33:49;22.90;;;17.40;;
6348;SDS011;3207;42.648;23.406;2022-12-07T10:36:19;24.83;;;17.90;;
6348;SDS011;3207;42.648;23.406;2022-12-07T10:38:48;26.03;;;19.33;;
6348;SDS011;3207;42.648;23.406;2022-12-07T10:41:16;25.20;;;19.20;;
6348;SDS011;3207;42.648;23.406;2022-12-07T10:43:47;25.43;;;18.33;;
6348;SDS011;3207;42.648;23.406;2022-12-07T10:49:28;24.17;;;17.90;;
6348;SDS011;3207;42.648;23.406;2022-12-07T10:52:18;23.53;;;18.63;;
6348;SDS011;3207;42.648;23.406;2022-12-07T10:55:01;26.03;;;19.37;;
6348;SDS011;3207;42.648;23.406;2022-12-07T10:57:37;28.17;;;21.07;;
6348;SDS011;3207;42.648;23.406;2022-12-07T11:00:16;37.40;;;24.03;;
6348;SDS011;3207;42.648;23.406;2022-12-07T11:02:58;34.73;;;25.77;;
6348;SDS011;3207;42.648;23.406;2022-12-07T11:05:48;38.13;;;26.53;;
6348;SDS011;3207;42.648;23.406;2022-12-07T11:08:20;35.70;;;25.73;;
6348;SDS011;3207;42.648;23.406;2022-12-07T11:10:59;37.23;;;27.63;;
6348;SDS011;3207;42.648;23.406;2022-12-07T11:13:36;35.37;;;26.43;;
6348;SDS011;3207;42.648;23.406;2022-12-07T11:16:16;36.10;;;27.53;;
6348;SDS011;3207;42.648;23.406;2022-12-07T11:18:54;33.50;;;26.97;;
6348;SDS011;3207;42.648;23.406;2022-12-07T11:21:34;37.87;;;27.50;;
6348;SDS011;3207;42.648;23.406;2022-12-07T11:24:09;37.43;;;26.13;;
6348;SDS011;3207;42.648;23.406;2022-12-07T11:26:50;37.17;;;27.57;;
6348;SDS011;3207;42.648;23.406;2022-12-07T11:29:39;36.47;;;27.27;;
6348;SDS011;3207;42.648;23.406;2022-12-07T11:32:17;36.33;;;26.80;;
6348;SDS011;3207;42.648;23.406;2022-12-07T11:34:57;38.90;;;30.17;;
6348;SDS011;3207;42.648;23.406;2022-12-07T11:37:32;38.60;;;28.83;;
6348;SDS011;3207;42.648;23.406;2022-12-07T11:40:03;37.07;;;27.67;;
6348;SDS011;3207;42.648;23.406;2022-12-07T11:42:33;34.40;;;26.80;;
6348;SDS011;3207;42.648;23.406;2022-12-07T11:45:10;34.20;;;26.30;;
6348;SDS011;3207;42.648;23.406;2022-12-07T11:47:43;36.87;;;26.33;;
6348;SDS011;3207;42.648;23.406;2022-12-07T11:50:26;38.57;;;26.17;;
6348;SDS011;3207;42.648;23.406;2022-12-07T11:52:58;42.37;;;30.80;;
6348;SDS011;3207;42.648;23.406;2022-12-07T11:55:32;37.37;;;28.50;;
6348;SDS011;3207;42.648;23.406;2022-12-07T11:58:11;35.73;;;26.53;;
6348;SDS011;3207;42.648;23.406;2022-12-07T12:00:48;37.53;;;28.20;;
6348;SDS011;3207;42.648;23.406;2022-12-07T12:03:20;37.03;;;28.30;;
6348;SDS011;3207;42.648;23.406;2022-12-07T12:05:56;38.03;;;27.03;;
6348;SDS011;3207;42.648;23.406;2022-12-07T12:08:25;39.13;;;28.57;;
6348;SDS011;3207;42.648;23.406;2022-12-07T12:10:59;43.10;;;30.50;;
6348;SDS011;3207;42.648;23.406;2022-12-07T12:13:47;41.77;;;29.60;;
6348;SDS011;3207;42.648;23.406;2022-12-07T12:19:55;34.73;;;26.50;;
6348;SDS011;3207;42.648;23.406;2022-12-07T12:22:28;33.57;;;25.63;;
6348;SDS011;3207;42.648;23.406;2022-12-07T12:25:02;31.13;;;23.37;;
6348;SDS011;3207;42.648;23.406;2022-12-07T12:27:31;37.83;;;25.80;;
6348;SDS011;3207;42.648;23.406;2022-12-07T12:30:02;36.37;;;27.97;;
6348;SDS011;3207;42.648;23.406;2022-12-07T12:32:33;34.47;;;25.63;;
6348;SDS011;3207;42.648;23.406;2022-12-07T12:35:21;37.57;;;28.10;;
6348;SDS011;3207;42.648;23.406;2022-12-07T12:38:20;37.60;;;27.50;;
6348;SDS011;3207;42.648;23.406;2022-12-07T12:40:53;32.83;;;24.57;;
6348;SDS011;3207;42.648;23.406;2022-12-07T12:55:18;36.77;;;23.37;;
6348;SDS011;3207;42.648;23.406;2022-12-07T13:03:54;35.73;;;27.33;;
6348;SDS011;3207;42.648;23.406;2022-12-07T13:06:32;38.47;;;27.20;;
6348;SDS011;3207;42.648;23.406;2022-12-07T13:09:03;36.90;;;26.37;;
6348;SDS011;3207;42.648;23.406;2022-12-07T13:11:33;44.33;;;31.03;;
6348;SDS011;3207;42.648;23.406;2022-12-07T13:17:08;38.93;;;27.70;;
6348;SDS011;3207;42.648;23.406;2022-12-07T13:25:18;30.73;;;23.03;;
6348;SDS011;3207;42.648;23.406;2022-12-07T13:27:56;27.03;;;20.73;;
6348;SDS011;3207;42.648;23.406;2022-12-07T13:30:27;31.97;;;22.53;;
6348;SDS011;3207;42.648;23.406;2022-12-07T13:32:56;28.10;;;21.83;;
6348;SDS011;3207;42.648;23.406;2022-12-07T13:35:32;26.80;;;21.00;;
6348;SDS011;3207;42.648;23.406;2022-12-07T13:38:03;29.20;;;19.90;;
6348;SDS011;3207;42.648;23.406;2022-12-07T13:40:32;28.13;;;19.63;;
6348;SDS011;3207;42.648;23.406;2022-12-07T13:43:02;23.40;;;18.77;;
6348;SDS011;3207;42.648;23.406;2022-12-07T13:45:30;25.70;;;19.10;;
6348;SDS011;3207;42.648;23.406;2022-12-07T13:48:14;30.43;;;19.57;;
6348;SDS011;3207;42.648;23.406;2022-12-07T13:50:52;33.33;;;20.37;;
6348;SDS011;3207;42.648;23.406;2022-12-07T13:53:19;27.57;;;20.73;;
6348;SDS011;3207;42.648;23.406;2022-12-07T13:55:46;28.27;;;21.23;;
6348;SDS011;3207;42.648;23.406;2022-12-07T13:58:15;27.00;;;20.17;;
6348;SDS011;3207;42.648;23.406;2022-12-07T14:00:42;28.17;;;20.03;;
6348;SDS011;3207;42.648;23.406;2022-12-07T14:03:29;29.10;;;21.17;;
6348;SDS011;3207;42.648;23.406;2022-12-07T14:06:06;30.33;;;21.70;;
6348;SDS011;3207;42.648;23.406;2022-12-07T14:08:46;28.50;;;21.60;;
6348;SDS011;3207;42.648;23.406;2022-12-07T14:11:15;29.87;;;23.10;;
6348;SDS011;3207;42.648;23.406;2022-12-07T14:13:49;34.23;;;24.80;;
6348;SDS011;3207;42.648;23.406;2022-12-07T14:16:23;29.63;;;21.97;;
6348;SDS011;3207;42.648;23.406;2022-12-07T14:18:52;33.30;;;23.73;;
6348;SDS011;3207;42.648;23.406;2022-12-07T14:21:20;31.37;;;23.63;;
6348;SDS011;3207;42.648;23.406;2022-12-07T14:24:02;39.63;;;26.73;;
6348;SDS011;3207;42.648;23.406;2022-12-07T14:26:42;34.53;;;24.20;;
6348;SDS011;3207;42.648;23.406;2022-12-07T14:29:20;35.60;;;26.80;;
6348;SDS011;3207;42.648;23.406;2022-12-07T14:31:49;37.57;;;27.47;;
6348;SDS011;3207;42.648;23.406;2022-12-07T14:34:15;36.40;;;26.10;;
6348;SDS011;3207;42.648;23.406;2022-12-07T14:36:42;33.80;;;23.87;;
6348;SDS011;3207;42.648;23.406;2022-12-07T14:39:09;54.07;;;38.67;;
6348;SDS011;3207;42.648;23.406;2022-12-07T14:41:36;32.80;;;24.43;;
6348;SDS011;3207;42.648;23.406;2022-12-07T14:44:18;26.77;;;21.77;;
6348;SDS011;3207;42.648;23.406;2022-12-07T14:46:47;34.10;;;23.70;;
6348;SDS011;3207;42.648;23.406;2022-12-07T14:49:14;29.00;;;22.97;;
6348;SDS011;3207;42.648;23.406;2022-12-07T14:51:41;28.73;;;21.87;;
6348;SDS011;3207;42.648;23.406;2022-12-07T14:54:11;31.27;;;21.27;;
6348;SDS011;3207;42.648;23.406;2022-12-07T14:56:42;31.07;;;21.30;;
6348;SDS011;3207;42.648;23.406;2022-12-07T14:59:09;25.93;;;20.10;;
6348;SDS011;3207;42.648;23.406;2022-12-07T15:01:36;27.20;;;21.27;;
6348;SDS011;3207;42.648;23.406;2022-12-07T15:04:05;30.60;;;22.33;;
6348;SDS011;3207;42.648;23.406;2022-12-07T15:06:32;29.57;;;22.10;;
6348;SDS011;3207;42.648;23.406;2022-12-07T15:08:59;36.73;;;26.60;;
6348;SDS011;3207;42.648;23.406;2022-12-07T15:11:25;32.40;;;24.90;;
6348;SDS011;3207;42.648;23.406;2022-12-07T15:13:52;33.10;;;24.27;;
6348;SDS011;3207;42.648;23.406;2022-12-07T15:16:35;29.87;;;22.23;;
6348;SDS011;3207;42.648;23.406;2022-12-07T15:19:06;29.20;;;21.37;;
6348;SDS011;3207;42.648;23.406;2022-12-07T15:21:36;27.80;;;19.70;;
6348;SDS011;3207;42.648;23.406;2022-12-07T15:24:03;26.17;;;20.73;;
6348;SDS011;3207;42.648;23.406;2022-12-07T15:26:30;28.90;;;20.70;;
6348;SDS011;3207;42.648;23.406;2022-12-07T15:28:57;28.07;;;20.37;;